sensor_id;sensor_type;location;lat;lon;timestamp;pressure;altitude;pressure_sealevel;temperature
18713;BMP280;9485;49.386;8.674;2023-05-27T00:01:32;101147.63;;;19.22
18713;BMP280;9485;49.386;8.674;2023-05-27T00:06:53;101151.09;;;19.15
18713;BMP280;9485;49.386;8.674;2023-05-27T00:12:14;101148.53;;;19.11
18713;BMP280;9485;49.386;8.674;2023-05-27T00:17:35;101138.44;;;19.05
18713;BMP280;9485;49.386;8.674;2023-05-27T00:22:58;101149.41;;;19.01
18713;BMP280;9485;49.386;8.674;2023-05-27T00:28:19;101146.59;;;18.95
18713;BMP280;9485;49.386;8.674;2023-05-27T00:33:42;101135.69;;;18.94
18713;BMP280;9485;49.386;8.674;2023-05-27T00:39:03;101148.22;;;18.91
18713;BMP280;9485;49.386;8.674;2023-05-27T00:44:24;101151.38;;;18.87
18713;BMP280;9485;49.386;8.674;2023-05-27T00:49:49;101153.22;;;18.85
18713;BMP280;9485;49.386;8.674;2023-05-27T00:55:09;101154.84;;;18.81
18713;BMP280;9485;49.386;8.674;2023-05-27T01:00:30;101144.22;;;18.76
18713;BMP280;9485;49.386;8.674;2023-05-27T01:06:02;101166.63;;;18.72
18713;BMP280;9485;49.386;8.674;2023-05-27T01:11:32;101152.13;;;18.64
18713;BMP280;9485;49.386;8.674;2023-05-27T01:16:57;101155.06;;;18.59
18713;BMP280;9485;49.386;8.674;2023-05-27T01:22:27;101150.59;;;18.63
18713;BMP280;9485;49.386;8.674;2023-05-27T01:27:48;101151.47;;;18.53
18713;BMP280;9485;49.386;8.674;2023-05-27T01:33:13;101156.53;;;18.41
18713;BMP280;9485;49.386;8.674;2023-05-27T01:38:40;101149.63;;;18.26
18713;BMP280;9485;49.386;8.674;2023-05-27T01:44:03;101156.22;;;18.10
18713;BMP280;9485;49.386;8.674;2023-05-27T01:49:26;101149.53;;;18.02
18713;BMP280;9485;49.386;8.674;2023-05-27T01:54:48;101133.72;;;17.96
18713;BMP280;9485;49.386;8.674;2023-05-27T02:00:13;101136.16;;;17.81
18713;BMP280;9485;49.386;8.674;2023-05-27T02:05:39;101138.63;;;17.66
18713;BMP280;9485;49.386;8.674;2023-05-27T02:11:03;101144.63;;;17.57
18713;BMP280;9485;49.386;8.674;2023-05-27T02:16:23;101122.09;;;17.48
18713;BMP280;9485;49.386;8.674;2023-05-27T02:21:44;101127.34;;;17.38
18713;BMP280;9485;49.386;8.674;2023-05-27T02:27:06;101134.38;;;17.21
18713;BMP280;9485;49.386;8.674;2023-05-27T02:32:28;101122.50;;;17.12
18713;BMP280;9485;49.386;8.674;2023-05-27T02:37:50;101129.28;;;17.03
18713;BMP280;9485;49.386;8.674;2023-05-27T02:43:12;101111.38;;;17.03
18713;BMP280;9485;49.386;8.674;2023-05-27T02:48:33;101128.75;;;16.99
18713;BMP280;9485;49.386;8.674;2023-05-27T02:53:54;101111.91;;;17.01
18713;BMP280;9485;49.386;8.674;2023-05-27T02:59:16;101118.69;;;16.93
18713;BMP280;9485;49.386;8.674;2023-05-27T03:04:36;101111.69;;;16.88
18713;BMP280;9485;49.386;8.674;2023-05-27T03:09:58;101106.00;;;16.83
18713;BMP280;9485;49.386;8.674;2023-05-27T03:15:20;101106.25;;;16.79
18713;BMP280;9485;49.386;8.674;2023-05-27T03:20:41;101118.72;;;16.76
18713;BMP280;9485;49.386;8.674;2023-05-27T03:26:02;101110.16;;;16.76
18713;BMP280;9485;49.386;8.674;2023-05-27T03:31:25;101108.91;;;16.72
18713;BMP280;9485;49.386;8.674;2023-05-27T03:36:57;101112.50;;;16.72
18713;BMP280;9485;49.386;8.674;2023-05-27T03:42:33;101108.91;;;16.72
18713;BMP280;9485;49.386;8.674;2023-05-27T03:47:56;101112.25;;;16.70
18713;BMP280;9485;49.386;8.674;2023-05-27T03:53:16;101112.25;;;16.70
18713;BMP280;9485;49.386;8.674;2023-05-27T03:58:38;101125.22;;;16.71
18713;BMP280;9485;49.386;8.674;2023-05-27T04:04:00;101123.41;;;16.68
18713;BMP280;9485;49.386;8.674;2023-05-27T04:09:23;101121.06;;;16.67
18713;BMP280;9485;49.386;8.674;2023-05-27T04:14:44;101127.31;;;16.65
18713;BMP280;9485;49.386;8.674;2023-05-27T04:20:08;101128.34;;;16.68
18713;BMP280;9485;49.386;8.674;2023-05-27T04:25:32;101137.16;;;16.70
18713;BMP280;9485;49.386;8.674;2023-05-27T04:30:57;101122.88;;;16.75
18713;BMP280;9485;49.386;8.674;2023-05-27T04:36:28;101121.06;;;16.72
18713;BMP280;9485;49.386;8.674;2023-05-27T04:42:05;101128.06;;;16.82
18713;BMP280;9485;49.386;8.674;2023-05-27T04:47:26;101121.81;;;16.89
18713;BMP280;9485;49.386;8.674;2023-05-27T04:52:49;101123.06;;;16.94
18713;BMP280;9485;49.386;8.674;2023-05-27T04:58:10;101126.44;;;16.98
18713;BMP280;9485;49.386;8.674;2023-05-27T05:03:32;101119.38;;;17.10
18713;BMP280;9485;49.386;8.674;2023-05-27T05:09:00;101122.16;;;17.26
18713;BMP280;9485;49.386;8.674;2023-05-27T05:14:23;101114.63;;;17.34
18713;BMP280;9485;49.386;8.674;2023-05-27T05:19:44;101118.69;;;17.49
18713;BMP280;9485;49.386;8.674;2023-05-27T05:25:08;101125.34;;;17.68
18713;BMP280;9485;49.386;8.674;2023-05-27T05:30:34;101124.69;;;17.86
18713;BMP280;9485;49.386;8.674;2023-05-27T05:35:55;101127.44;;;18.03
18713;BMP280;9485;49.386;8.674;2023-05-27T05:41:23;101135.31;;;18.26
18713;BMP280;9485;49.386;8.674;2023-05-27T05:46:46;101128.44;;;18.40
18713;BMP280;9485;49.386;8.674;2023-05-27T05:52:06;101139.47;;;18.60
18713;BMP280;9485;49.386;8.674;2023-05-27T05:57:29;101131.22;;;18.75
18713;BMP280;9485;49.386;8.674;2023-05-27T06:02:51;101136.69;;;18.96
18713;BMP280;9485;49.386;8.674;2023-05-27T06:08:33;101126.81;;;18.97
18713;BMP280;9485;49.386;8.674;2023-05-27T06:14:05;101142.69;;;19.22
18713;BMP280;9485;49.386;8.674;2023-05-27T06:19:26;101148.25;;;19.33
18713;BMP280;9485;49.386;8.674;2023-05-27T06:24:47;101146.81;;;19.45
18713;BMP280;9485;49.386;8.674;2023-05-27T06:30:16;101162.53;;;19.57
18713;BMP280;9485;49.386;8.674;2023-05-27T06:35:39;101143.50;;;19.78
18713;BMP280;9485;49.386;8.674;2023-05-27T06:41:00;101153.63;;;19.97
18713;BMP280;9485;49.386;8.674;2023-05-27T06:46:23;101153.22;;;20.25
18713;BMP280;9485;49.386;8.674;2023-05-27T06:51:55;101158.44;;;20.39
18713;BMP280;9485;49.386;8.674;2023-05-27T06:57:17;101151.66;;;20.68
18713;BMP280;9485;49.386;8.674;2023-05-27T07:02:48;101157.25;;;21.05
18713;BMP280;9485;49.386;8.674;2023-05-27T07:08:09;101157.56;;;21.40
18713;BMP280;9485;49.386;8.674;2023-05-27T07:13:31;101151.66;;;24.27
18713;BMP280;9485;49.386;8.674;2023-05-27T07:18:55;101159.78;;;27.24
18713;BMP280;9485;49.386;8.674;2023-05-27T07:24:17;101156.28;;;29.26
18713;BMP280;9485;49.386;8.674;2023-05-27T07:29:39;101167.09;;;30.88
18713;BMP280;9485;49.386;8.674;2023-05-27T07:35:08;101170.00;;;31.81
18713;BMP280;9485;49.386;8.674;2023-05-27T07:40:29;101168.38;;;32.66
18713;BMP280;9485;49.386;8.674;2023-05-27T07:45:50;101164.19;;;33.14
18713;BMP280;9485;49.386;8.674;2023-05-27T07:51:12;101146.75;;;33.75
18713;BMP280;9485;49.386;8.674;2023-05-27T07:56:34;101151.78;;;33.62
18713;BMP280;9485;49.386;8.674;2023-05-27T08:02:20;101141.78;;;34.41
18713;BMP280;9485;49.386;8.674;2023-05-27T08:07:44;101142.91;;;34.09
18713;BMP280;9485;49.386;8.674;2023-05-27T08:13:38;101133.09;;;33.32
18713;BMP280;9485;49.386;8.674;2023-05-27T08:19:22;101126.19;;;34.50
18713;BMP280;9485;49.386;8.674;2023-05-27T08:25:05;101126.78;;;34.73
18713;BMP280;9485;49.386;8.674;2023-05-27T08:30:45;101128.38;;;35.57
18713;BMP280;9485;49.386;8.674;2023-05-27T08:36:33;101115.50;;;35.77
18713;BMP280;9485;49.386;8.674;2023-05-27T08:41:57;101112.34;;;36.02
18713;BMP280;9485;49.386;8.674;2023-05-27T08:47:22;101115.53;;;36.98
18713;BMP280;9485;49.386;8.674;2023-05-27T08:52:47;101108.38;;;37.52
18713;BMP280;9485;49.386;8.674;2023-05-27T08:58:11;101096.22;;;37.94
18713;BMP280;9485;49.386;8.674;2023-05-27T09:03:37;101106.25;;;38.04
18713;BMP280;9485;49.386;8.674;2023-05-27T09:08:58;101099.53;;;37.34
18713;BMP280;9485;49.386;8.674;2023-05-27T09:14:21;101086.59;;;36.78
18713;BMP280;9485;49.386;8.674;2023-05-27T09:19:45;101085.59;;;35.67
18713;BMP280;9485;49.386;8.674;2023-05-27T09:25:07;101067.75;;;34.54
18713;BMP280;9485;49.386;8.674;2023-05-27T09:30:30;101064.75;;;33.28
18713;BMP280;9485;49.386;8.674;2023-05-27T09:35:51;101061.66;;;32.09
18713;BMP280;9485;49.386;8.674;2023-05-27T09:41:11;101060.16;;;31.76
18713;BMP280;9485;49.386;8.674;2023-05-27T09:46:34;101054.16;;;31.42
18713;BMP280;9485;49.386;8.674;2023-05-27T09:51:57;101058.34;;;31.71
18713;BMP280;9485;49.386;8.674;2023-05-27T09:57:20;101047.34;;;31.49
18713;BMP280;9485;49.386;8.674;2023-05-27T10:02:46;101043.63;;;30.95
18713;BMP280;9485;49.386;8.674;2023-05-27T10:08:07;101034.94;;;30.65
18713;BMP280;9485;49.386;8.674;2023-05-27T10:13:29;101026.88;;;30.54
18713;BMP280;9485;49.386;8.674;2023-05-27T10:18:56;101022.88;;;30.19
18713;BMP280;9485;49.386;8.674;2023-05-27T10:24:17;101033.47;;;30.54
18713;BMP280;9485;49.386;8.674;2023-05-27T10:29:39;101025.09;;;30.40
18713;BMP280;9485;49.386;8.674;2023-05-27T10:35:02;101017.59;;;30.67
18713;BMP280;9485;49.386;8.674;2023-05-27T10:40:24;101009.28;;;30.94
18713;BMP280;9485;49.386;8.674;2023-05-27T10:45:45;101007.38;;;31.19
18713;BMP280;9485;49.386;8.674;2023-05-27T10:51:08;101012.88;;;31.25
18713;BMP280;9485;49.386;8.674;2023-05-27T10:56:29;101003.31;;;31.45
18713;BMP280;9485;49.386;8.674;2023-05-27T11:01:52;100990.72;;;31.86
18713;BMP280;9485;49.386;8.674;2023-05-27T11:07:18;100987.94;;;32.00
18713;BMP280;9485;49.386;8.674;2023-05-27T11:12:44;100979.59;;;32.06
18713;BMP280;9485;49.386;8.674;2023-05-27T11:18:07;100980.72;;;32.23
18713;BMP280;9485;49.386;8.674;2023-05-27T11:23:36;100966.09;;;32.46
18713;BMP280;9485;49.386;8.674;2023-05-27T11:28:59;100962.16;;;31.96
18713;BMP280;9485;49.386;8.674;2023-05-27T11:34:20;100952.50;;;31.94
18713;BMP280;9485;49.386;8.674;2023-05-27T11:39:51;100947.69;;;32.09
18713;BMP280;9485;49.386;8.674;2023-05-27T11:45:16;100942.00;;;31.45
18713;BMP280;9485;49.386;8.674;2023-05-27T11:50:36;100932.50;;;30.80
18713;BMP280;9485;49.386;8.674;2023-05-27T11:55:58;100936.06;;;30.90
18713;BMP280;9485;49.386;8.674;2023-05-27T12:01:19;100929.13;;;30.32
18713;BMP280;9485;49.386;8.674;2023-05-27T12:06:40;100919.00;;;30.75
18713;BMP280;9485;49.386;8.674;2023-05-27T12:12:02;100910.59;;;30.90
18713;BMP280;9485;49.386;8.674;2023-05-27T12:17:23;100900.75;;;31.50
18713;BMP280;9485;49.386;8.674;2023-05-27T12:22:43;100897.88;;;31.07
18713;BMP280;9485;49.386;8.674;2023-05-27T12:28:08;100892.09;;;31.18
18713;BMP280;9485;49.386;8.674;2023-05-27T12:33:29;100880.13;;;31.81
18713;BMP280;9485;49.386;8.674;2023-05-27T12:38:50;100875.25;;;32.42
18713;BMP280;9485;49.386;8.674;2023-05-27T12:44:12;100870.03;;;33.13
18713;BMP280;9485;49.386;8.674;2023-05-27T12:49:33;100879.00;;;33.42
18713;BMP280;9485;49.386;8.674;2023-05-27T12:54:53;100869.97;;;33.90
18713;BMP280;9485;49.386;8.674;2023-05-27T13:00:17;100867.81;;;34.31
18713;BMP280;9485;49.386;8.674;2023-05-27T13:05:38;100858.59;;;34.23
18713;BMP280;9485;49.386;8.674;2023-05-27T13:10:58;100850.97;;;34.04
18713;BMP280;9485;49.386;8.674;2023-05-27T13:16:20;100845.66;;;34.01
18713;BMP280;9485;49.386;8.674;2023-05-27T13:21:41;100841.03;;;34.51
18713;BMP280;9485;49.386;8.674;2023-05-27T13:27:02;100818.97;;;33.68
18713;BMP280;9485;49.386;8.674;2023-05-27T13:32:24;100821.03;;;33.65
18713;BMP280;9485;49.386;8.674;2023-05-27T13:37:46;100826.88;;;34.19
18713;BMP280;9485;49.386;8.674;2023-05-27T13:43:07;100812.75;;;34.71
18713;BMP280;9485;49.386;8.674;2023-05-27T13:48:29;100815.69;;;34.71
18713;BMP280;9485;49.386;8.674;2023-05-27T13:53:50;100810.63;;;34.87
18713;BMP280;9485;49.386;8.674;2023-05-27T13:59:11;100798.59;;;34.81
18713;BMP280;9485;49.386;8.674;2023-05-27T14:04:33;100792.34;;;34.73
18713;BMP280;9485;49.386;8.674;2023-05-27T14:09:54;100788.28;;;34.80
18713;BMP280;9485;49.386;8.674;2023-05-27T14:15:15;100779.28;;;34.76
18713;BMP280;9485;49.386;8.674;2023-05-27T14:20:37;100771.13;;;34.17
18713;BMP280;9485;49.386;8.674;2023-05-27T14:25:57;100763.72;;;34.03
18713;BMP280;9485;49.386;8.674;2023-05-27T14:31:18;100746.63;;;33.57
18713;BMP280;9485;49.386;8.674;2023-05-27T14:36:40;100729.34;;;32.84
18713;BMP280;9485;49.386;8.674;2023-05-27T14:42:01;100732.34;;;31.76
18713;BMP280;9485;49.386;8.674;2023-05-27T14:47:21;100719.53;;;30.89
18713;BMP280;9485;49.386;8.674;2023-05-27T14:52:43;100714.47;;;30.46
18713;BMP280;9485;49.386;8.674;2023-05-27T14:58:04;100720.09;;;30.21
18713;BMP280;9485;49.386;8.674;2023-05-27T15:03:26;100719.63;;;30.04
18713;BMP280;9485;49.386;8.674;2023-05-27T15:08:50;100722.38;;;29.81
18713;BMP280;9485;49.386;8.674;2023-05-27T15:14:10;100723.34;;;29.53
18713;BMP280;9485;49.386;8.674;2023-05-27T15:19:31;100709.13;;;29.17
18713;BMP280;9485;49.386;8.674;2023-05-27T15:24:53;100703.16;;;28.85
18713;BMP280;9485;49.386;8.674;2023-05-27T15:30:15;100699.25;;;28.52
18713;BMP280;9485;49.386;8.674;2023-05-27T15:35:36;100699.16;;;28.31
18713;BMP280;9485;49.386;8.674;2023-05-27T15:40:58;100689.09;;;28.13
18713;BMP280;9485;49.386;8.674;2023-05-27T15:46:21;100685.13;;;28.00
18713;BMP280;9485;49.386;8.674;2023-05-27T15:51:42;100671.38;;;27.81
18713;BMP280;9485;49.386;8.674;2023-05-27T15:57:06;100686.94;;;27.67
18713;BMP280;9485;49.386;8.674;2023-05-27T16:02:27;100670.88;;;27.56
18713;BMP280;9485;49.386;8.674;2023-05-27T16:07:48;100677.44;;;27.47
18713;BMP280;9485;49.386;8.674;2023-05-27T16:13:10;100673.28;;;27.32
18713;BMP280;9485;49.386;8.674;2023-05-27T16:18:30;100674.63;;;27.21
18713;BMP280;9485;49.386;8.674;2023-05-27T16:23:51;100667.13;;;27.09
18713;BMP280;9485;49.386;8.674;2023-05-27T16:29:14;100656.53;;;26.94
18713;BMP280;9485;49.386;8.674;2023-05-27T16:34:35;100651.91;;;26.82
18713;BMP280;9485;49.386;8.674;2023-05-27T16:39:56;100650.69;;;26.75
18713;BMP280;9485;49.386;8.674;2023-05-27T16:45:19;100652.31;;;26.69
18713;BMP280;9485;49.386;8.674;2023-05-27T16:50:39;100635.16;;;26.54
18713;BMP280;9485;49.386;8.674;2023-05-27T16:56:00;100646.59;;;26.52
18713;BMP280;9485;49.386;8.674;2023-05-27T17:01:25;100646.09;;;26.46
18713;BMP280;9485;49.386;8.674;2023-05-27T17:06:45;100639.31;;;26.34
18713;BMP280;9485;49.386;8.674;2023-05-27T17:12:07;100638.81;;;26.28
18713;BMP280;9485;49.386;8.674;2023-05-27T17:17:30;100643.94;;;26.20
18713;BMP280;9485;49.386;8.674;2023-05-27T17:22:51;100644.66;;;26.11
18713;BMP280;9485;49.386;8.674;2023-05-27T17:28:12;100630.22;;;25.94
18713;BMP280;9485;49.386;8.674;2023-05-27T17:33:34;100630.19;;;25.85
18713;BMP280;9485;49.386;8.674;2023-05-27T17:38:55;100637.78;;;25.73
18713;BMP280;9485;49.386;8.674;2023-05-27T17:44:16;100634.06;;;25.63
18713;BMP280;9485;49.386;8.674;2023-05-27T17:49:39;100635.19;;;25.51
18713;BMP280;9485;49.386;8.674;2023-05-27T17:55:00;100635.28;;;25.43
18713;BMP280;9485;49.386;8.674;2023-05-27T18:00:22;100638.56;;;25.40
18713;BMP280;9485;49.386;8.674;2023-05-27T18:05:45;100630.41;;;25.29
18713;BMP280;9485;49.386;8.674;2023-05-27T18:11:07;100645.28;;;25.25
18713;BMP280;9485;49.386;8.674;2023-05-27T18:16:28;100636.16;;;25.12
18713;BMP280;9485;49.386;8.674;2023-05-27T18:21:50;100651.25;;;25.03
18713;BMP280;9485;49.386;8.674;2023-05-27T18:27:11;100645.25;;;24.84
18713;BMP280;9485;49.386;8.674;2023-05-27T18:32:43;100650.63;;;24.63
18713;BMP280;9485;49.386;8.674;2023-05-27T18:38:06;100654.22;;;24.39
18713;BMP280;9485;49.386;8.674;2023-05-27T18:43:27;100647.63;;;24.15
18713;BMP280;9485;49.386;8.674;2023-05-27T18:48:48;100657.88;;;24.08
18713;BMP280;9485;49.386;8.674;2023-05-27T18:54:10;100650.44;;;23.98
18713;BMP280;9485;49.386;8.674;2023-05-27T18:59:31;100647.97;;;23.87
18713;BMP280;9485;49.386;8.674;2023-05-27T19:04:52;100650.91;;;23.72
18713;BMP280;9485;49.386;8.674;2023-05-27T19:10:14;100659.78;;;23.59
18713;BMP280;9485;49.386;8.674;2023-05-27T19:15:35;100657.91;;;23.39
18713;BMP280;9485;49.386;8.674;2023-05-27T19:20:56;100660.25;;;23.18
18713;BMP280;9485;49.386;8.674;2023-05-27T19:26:17;100656.41;;;23.01
18713;BMP280;9485;49.386;8.674;2023-05-27T19:31:38;100654.69;;;22.75
18713;BMP280;9485;49.386;8.674;2023-05-27T19:36:59;100657.38;;;22.59
18713;BMP280;9485;49.386;8.674;2023-05-27T19:42:21;100652.16;;;22.35
18713;BMP280;9485;49.386;8.674;2023-05-27T19:47:42;100656.66;;;22.08
18713;BMP280;9485;49.386;8.674;2023-05-27T19:53:02;100649.09;;;21.83
18713;BMP280;9485;49.386;8.674;2023-05-27T19:58:24;100645.16;;;21.58
18713;BMP280;9485;49.386;8.674;2023-05-27T20:03:45;100648.03;;;21.30
18713;BMP280;9485;49.386;8.674;2023-05-27T20:09:06;100649.41;;;21.09
18713;BMP280;9485;49.386;8.674;2023-05-27T20:14:28;100641.13;;;20.98
18713;BMP280;9485;49.386;8.674;2023-05-27T20:19:48;100643.38;;;20.92
18713;BMP280;9485;49.386;8.674;2023-05-27T20:25:09;100637.84;;;20.94
18713;BMP280;9485;49.386;8.674;2023-05-27T20:30:31;100639.00;;;20.98
18713;BMP280;9485;49.386;8.674;2023-05-27T20:35:52;100641.13;;;20.98
18713;BMP280;9485;49.386;8.674;2023-05-27T20:41:12;100634.44;;;21.03
18713;BMP280;9485;49.386;8.674;2023-05-27T20:46:34;100631.03;;;21.04
18713;BMP280;9485;49.386;8.674;2023-05-27T20:51:57;100631.28;;;21.14
18713;BMP280;9485;49.386;8.674;2023-05-27T20:57:18;100621.47;;;21.37
18713;BMP280;9485;49.386;8.674;2023-05-27T21:02:40;100617.56;;;21.55
18713;BMP280;9485;49.386;8.674;2023-05-27T21:08:00;100606.53;;;21.74
18713;BMP280;9485;49.386;8.674;2023-05-27T21:13:21;100607.13;;;21.87
18713;BMP280;9485;49.386;8.674;2023-05-27T21:18:43;100605.44;;;21.99
18713;BMP280;9485;49.386;8.674;2023-05-27T21:24:05;100600.47;;;22.07
18713;BMP280;9485;49.386;8.674;2023-05-27T21:29:25;100600.50;;;22.14
18713;BMP280;9485;49.386;8.674;2023-05-27T21:34:47;100595.72;;;22.17
18713;BMP280;9485;49.386;8.674;2023-05-27T21:40:09;100607.22;;;22.24
18713;BMP280;9485;49.386;8.674;2023-05-27T21:45:30;100606.66;;;22.26
18713;BMP280;9485;49.386;8.674;2023-05-27T21:50:53;100593.03;;;22.26
18713;BMP280;9485;49.386;8.674;2023-05-27T21:56:14;100593.78;;;22.27
18713;BMP280;9485;49.386;8.674;2023-05-27T22:01:34;100595.16;;;22.26
18713;BMP280;9485;49.386;8.674;2023-05-27T22:06:57;100597.06;;;22.23
18713;BMP280;9485;49.386;8.674;2023-05-27T22:12:17;100583.06;;;22.20
18713;BMP280;9485;49.386;8.674;2023-05-27T22:17:38;100583.25;;;22.22
18713;BMP280;9485;49.386;8.674;2023-05-27T22:23:01;100590.72;;;22.17
18713;BMP280;9485;49.386;8.674;2023-05-27T22:28:21;100580.75;;;22.11
18713;BMP280;9485;49.386;8.674;2023-05-27T22:33:42;100577.31;;;22.05
18713;BMP280;9485;49.386;8.674;2023-05-27T22:39:04;100571.72;;;21.99
18713;BMP280;9485;49.386;8.674;2023-05-27T22:44:24;100564.06;;;21.94
18713;BMP280;9485;49.386;8.674;2023-05-27T22:49:45;100553.84;;;21.86
18713;BMP280;9485;49.386;8.674;2023-05-27T22:55:08;100551.34;;;21.83
18713;BMP280;9485;49.386;8.674;2023-05-27T23:00:29;100539.84;;;21.75
18713;BMP280;9485;49.386;8.674;2023-05-27T23:05:49;100550.00;;;21.76
18713;BMP280;9485;49.386;8.674;2023-05-27T23:11:11;100546.94;;;21.74
18713;BMP280;9485;49.386;8.674;2023-05-27T23:16:32;100534.06;;;21.68
18713;BMP280;9485;49.386;8.674;2023-05-27T23:21:52;100525.81;;;21.64
18713;BMP280;9485;49.386;8.674;2023-05-27T23:27:14;100538.47;;;21.61
18713;BMP280;9485;49.386;8.674;2023-05-27T23:32:35;100526.38;;;21.55
18713;BMP280;9485;49.386;8.674;2023-05-27T23:37:55;100531.91;;;21.53
18713;BMP280;9485;49.386;8.674;2023-05-27T23:43:17;100523.06;;;21.51
18713;BMP280;9485;49.386;8.674;2023-05-27T23:48:38;100525.34;;;21.45
18713;BMP280;9485;49.386;8.674;2023-05-27T23:54:00;100512.91;;;21.43
18713;BMP280;9485;49.386;8.674;2023-05-27T23:59:22;100507.16;;;21.43
